< < Back
Terminal Aerodrome Forecast


Current Version              Previous Versions:   1  2  3  4  5  6  7  8  9  

Terminal Aerodrome Forecast

905
FTUS42 KFFC 111945 AAA
TAFATL
TAF AMD
KATL 111945Z 1120/1224 30004KT P6SM FEW050
     FM120000 01004KT P6SM SCT040 SCT200
     FM120300 02004KT P6SM SCT035 BKN200
     FM120900 06005KT P6SM BKN030
     FM121400 07005KT P6SM BKN025
     FM121800 30008KT P6SM BKN025=



Latest METAR

794
SAUS70 KWBC 112100 RRE
MTRATL
METAR KATL 112052Z 00000KT 10SM CLR 13/M06 A3012 RMK AO2 SLP203
T01281056 56009


USA.gov is the U.S. government's official web portal to all federal, state and local government web resources and services.